Time;durP1;ratioP1;P1;durP2;ratioP2;P2;SDS_P1;SDS_P2;PMS_P1;PMS_P2;Temp;Humidity;BMP_temperature;BMP_pressure;BME280_temperature;BME280_humidity;BME280_pressure;Samples;Min_cycle;Max_cycle;Signal;HPM_P1;HPM_P2
2022/03/25 00:00:02;;;;;;;6.03;1.80;;;25.00;99.90;;;;;;4923413;29;20111;-71
2022/03/25 00:02:29;;;;;;;4.07;1.80;;;24.70;99.90;;;;;;4927414;29;20046;-71
2022/03/25 00:04:57;;;;;;;2.10;1.33;;;24.50;99.90;;;;;;4929972;29;20039;-69
2022/03/25 00:07:26;;;;;;;2.45;1.20;;;24.30;99.90;;;;;;4928606;29;20063;-72
2022/03/25 00:09:53;;;;;;;1.67;0.90;;;24.10;99.90;;;;;;4933220;29;20036;-71
2022/03/25 00:12:20;;;;;;;3.63;1.63;;;23.90;99.90;;;;;;4921118;29;20031;-71
2022/03/25 00:14:48;;;;;;;2.85;1.02;;;23.70;99.90;;;;;;4923281;29;20028;-70
2022/03/25 00:17:16;;;;;;;3.42;1.40;;;23.50;99.90;;;;;;4922676;29;20020;-71
2022/03/25 00:19:43;;;;;;;2.78;1.23;;;23.40;99.90;;;;;;4922902;29;20044;-71
2022/03/25 00:22:11;;;;;;;9.80;2.83;;;23.20;99.90;;;;;;4921684;29;20032;-70
2022/03/25 00:24:38;;;;;;;5.03;1.52;;;23.10;99.90;;;;;;4921804;29;20035;-71
2022/03/25 00:27:06;;;;;;;2.97;1.52;;;23.10;99.90;;;;;;4920028;29;20027;-71
2022/03/25 00:29:33;;;;;;;2.43;1.30;;;23.00;99.90;;;;;;4922726;29;20514;-72
2022/03/25 00:32:02;;;;;;;3.55;1.25;;;22.90;99.90;;;;;;4920721;29;20082;-72
2022/03/25 00:34:30;;;;;;;3.85;1.20;;;23.00;99.90;;;;;;4928166;29;20024;-71
2022/03/25 00:36:58;;;;;;;4.20;1.00;;;23.00;99.90;;;;;;4920296;29;20035;-70
2022/03/25 00:39:25;;;;;;;1.63;0.68;;;23.00;99.90;;;;;;4922310;29;20106;-70
2022/03/25 00:41:53;;;;;;;2.45;1.00;;;23.10;99.90;;;;;;4923469;29;20107;-71
2022/03/25 00:44:20;;;;;;;3.65;1.00;;;23.20;99.90;;;;;;4924318;29;20035;-71
2022/03/25 00:46:48;;;;;;;3.45;1.17;;;23.50;99.90;;;;;;4923827;29;20146;-71
2022/03/25 00:49:16;;;;;;;4.72;1.65;;;23.90;99.90;;;;;;4924751;29;20051;-72
2022/03/25 00:51:43;;;;;;;3.63;1.42;;;24.10;99.90;;;;;;4922948;29;20054;-71
2022/03/25 00:54:11;;;;;;;4.43;1.50;;;24.00;99.90;;;;;;4929603;29;20031;-71
2022/03/25 00:56:38;;;;;;;3.15;2.60;;;24.00;99.90;;;;;;4924809;28;20030;-70
2022/03/25 00:59:06;;;;;;;7.15;2.08;;;23.70;99.90;;;;;;4922093;29;20114;-70
2022/03/25 01:01:34;;;;;;;1.95;1.00;;;23.30;99.90;;;;;;4928066;29;20726;-69
2022/03/25 01:04:01;;;;;;;6.10;1.10;;;23.00;99.90;;;;;;4929946;29;21749;-71
2022/03/25 01:06:29;;;;;;;2.22;1.10;;;22.90;99.90;;;;;;4930742;29;20027;-70
2022/03/25 01:08:56;;;;;;;4.13;1.05;;;22.60;99.90;;;;;;4942460;29;20423;-71
2022/03/25 01:11:23;;;;;;;5.35;1.63;;;22.40;99.90;;;;;;4949336;29;20040;-72
2022/03/25 01:13:51;;;;;;;2.72;0.88;;;22.20;99.90;;;;;;4933843;29;20031;-72
2022/03/25 01:16:18;;;;;;;4.35;1.17;;;22.10;99.90;;;;;;4929818;29;20028;-71
2022/03/25 01:18:46;;;;;;;6.93;1.52;;;22.00;99.90;;;;;;4931563;29;20035;-73
2022/03/25 01:21:13;;;;;;;4.88;1.73;;;21.90;99.90;;;;;;4933824;29;20514;-71
2022/03/25 01:23:40;;;;;;;5.00;1.48;;;21.90;99.90;;;;;;4930063;29;20068;-72
2022/03/25 01:26:08;;;;;;;11.88;2.75;;;21.90;99.90;;;;;;4927488;29;20526;-71
2022/03/25 01:28:35;;;;;;;4.28;2.10;;;22.40;99.90;;;;;;4921369;29;20044;-72
2022/03/25 01:31:04;;;;;;;5.20;1.50;;;22.60;99.90;;;;;;4924448;29;20043;-72
2022/03/25 01:33:31;;;;;;;2.42;1.25;;;22.60;99.90;;;;;;4922741;29;20043;-72
2022/03/25 01:35:59;;;;;;;8.45;2.08;;;22.50;99.90;;;;;;4924003;29;20086;-73
2022/03/25 01:38:26;;;;;;;2.92;1.17;;;22.50;99.90;;;;;;4923702;29;20067;-71
2022/03/25 01:40:54;;;;;;;6.20;1.88;;;22.60;99.90;;;;;;4921929;29;20039;-71
2022/03/25 01:43:22;;;;;;;4.03;0.88;;;22.80;99.90;;;;;;4921905;29;20102;-71
2022/03/25 01:45:49;;;;;;;1.52;0.47;;;22.80;99.90;;;;;;4922289;29;20106;-72
2022/03/25 01:48:17;;;;;;;8.10;0.95;;;22.70;99.90;;;;;;4925054;29;20088;-72
2022/03/25 01:50:50;;;;;;;5.03;2.22;;;22.80;99.90;;;;;;4926111;29;20028;-71
2022/03/25 01:53:24;;;;;;;1.38;0.60;;;23.10;99.90;;;;;;4922783;29;20386;-72
2022/03/25 01:55:57;;;;;;;2.97;0.90;;;23.30;99.90;;;;;;4921731;29;20047;-72
2022/03/25 01:58:27;;;;;;;4.25;1.60;;;23.30;99.90;;;;;;4921286;29;20024;-72
2022/03/25 02:00:55;;;;;;;3.33;0.88;;;23.30;99.90;;;;;;4922609;29;22074;-71
2022/03/25 02:03:22;;;;;;;2.47;0.70;;;23.60;99.90;;;;;;4922526;29;20119;-72
2022/03/25 02:05:50;;;;;;;2.55;0.90;;;23.90;99.90;;;;;;4923588;29;20043;-72
2022/03/25 02:08:18;;;;;;;3.47;0.85;;;23.90;99.90;;;;;;4928484;29;20046;-69
2022/03/25 02:10:46;;;;;;;3.95;0.77;;;23.80;99.90;;;;;;4923060;29;20047;-72
2022/03/25 02:13:13;;;;;;;7.15;1.15;;;23.60;99.90;;;;;;4920296;29;20084;-69
2022/03/25 02:15:43;;;;;;;11.05;1.10;;;23.70;99.90;;;;;;4921619;29;20166;-71
2022/03/25 02:18:14;;;;;;;3.58;1.05;;;24.10;99.90;;;;;;4918449;29;20039;-70
2022/03/25 02:20:43;;;;;;;2.95;1.45;;;24.30;99.90;;;;;;4918588;29;20052;-70
2022/03/25 02:23:12;;;;;;;4.72;1.05;;;24.40;99.90;;;;;;4920189;29;20028;-72
2022/03/25 02:25:41;;;;;;;3.30;1.20;;;24.40;99.90;;;;;;4920210;29;20055;-71
2022/03/25 02:28:09;;;;;;;5.35;0.98;;;24.40;99.90;;;;;;4923463;29;20162;-71
2022/03/25 02:30:38;;;;;;;2.67;0.93;;;24.50;99.90;;;;;;4921574;29;20102;-71
2022/03/25 02:33:08;;;;;;;4.68;1.20;;;24.80;99.90;;;;;;4920448;29;20090;-69
2022/03/25 02:35:43;;;;;;;3.72;1.02;;;25.50;99.90;;;;;;4921734;29;20028;-72
2022/03/25 02:38:11;;;;;;;;;;;26.20;99.90;;;;;;4922483;29;20533;-72
2022/03/25 02:40:39;;;;;;;1.02;0.45;;;26.60;99.90;;;;;;4919598;29;19914;-72
2022/03/25 02:43:08;;;;;;;2.20;0.60;;;26.80;99.90;;;;;;4919500;29;20024;-72
2022/03/25 02:45:35;;;;;;;1.65;0.88;;;27.20;99.90;;;;;;4921033;29;20035;-71
2022/03/25 02:48:03;;;;;;;2.25;0.95;;;26.90;99.90;;;;;;4917675;29;20039;-70
2022/03/25 02:50:31;;;;;;;3.80;0.98;;;26.50;99.90;;;;;;4920659;29;20050;-72
2022/03/25 02:53:00;;;;;;;2.25;0.68;;;26.10;99.90;;;;;;4920207;29;20066;-72
2022/03/25 02:55:28;;;;;;;1.67;0.70;;;25.80;99.90;;;;;;4926630;29;20055;-71
2022/03/25 02:57:56;;;;;;;3.42;0.50;;;25.50;99.90;;;;;;4925763;29;20035;-70
2022/03/25 03:00:26;;;;;;;2.45;0.85;;;25.30;99.90;;;;;;4915268;29;20039;-72
2022/03/25 03:02:54;;;;;;;3.30;1.17;;;25.60;99.90;;;;;;4925365;29;20028;-72
2022/03/25 03:05:22;;;;;;;0.52;0.40;;;25.90;99.90;;;;;;4920178;29;20046;-70
2022/03/25 03:07:50;;;;;;;2.85;0.63;;;26.30;99.90;;;;;;4924972;29;20131;-71
2022/03/25 03:10:18;;;;;;;2.40;0.65;;;26.50;99.90;;;;;;4923054;29;20444;-72
2022/03/25 03:12:45;;;;;;;1.95;0.60;;;26.60;99.90;;;;;;4923892;29;20047;-71
2022/03/25 03:15:17;;;;;;;1.90;0.82;;;26.50;99.90;;;;;;4918043;29;20028;-71
2022/03/25 03:17:48;;;;;;;1.23;0.50;;;26.70;99.90;;;;;;4930545;29;20186;-71
2022/03/25 03:20:18;;;;;;;1.20;0.40;;;27.00;99.90;;;;;;4933723;29;20074;-71
2022/03/25 03:22:46;;;;;;;1.42;0.40;;;26.90;99.90;;;;;;4926534;29;20036;-69
2022/03/25 03:25:13;;;;;;;0.98;0.50;;;27.00;99.90;;;;;;4924632;29;20442;-72
2022/03/25 03:27:41;;;;;;;3.63;0.60;;;27.30;99.90;;;;;;4923194;29;20039;-72
2022/03/25 03:30:11;;;;;;;1.42;0.68;;;27.20;99.90;;;;;;4926192;29;20083;-70
2022/03/25 03:32:40;;;;;;;1.67;0.50;;;26.80;99.90;;;;;;4923494;29;20505;-71
2022/03/25 03:35:09;;;;;;;2.50;0.38;;;26.50;99.90;;;;;;4923862;29;20544;-72
2022/03/25 03:37:46;;;;;;;5.05;0.40;;;26.20;99.90;;;;;;4921922;29;20027;-72
2022/03/25 03:40:15;;;;;;;1.40;0.63;;;25.90;99.90;;;;;;4921556;29;20430;-71
2022/03/25 03:42:46;;;;;;;2.55;0.65;;;26.10;99.90;;;;;;4921046;29;20042;-72
2022/03/25 03:45:14;;;;;;;4.18;1.15;;;26.30;99.90;;;;;;4920924;29;20036;-69
2022/03/25 03:47:43;;;;;;;1.92;0.50;;;26.40;99.90;;;;;;4923826;29;20092;-72
2022/03/25 03:50:13;;;;;;;2.67;0.70;;;26.30;99.90;;;;;;4920016;29;20054;-72
2022/03/25 03:52:42;;;;;;;1.92;0.55;;;26.30;99.90;;;;;;4924704;29;20075;-71
2022/03/25 03:55:10;;;;;;;1.35;0.70;;;26.50;99.90;;;;;;4924581;29;20122;-73
2022/03/25 03:57:39;;;;;;;1.23;0.50;;;26.90;99.90;;;;;;4921384;29;20062;-72
2022/03/25 04:00:12;;;;;;;3.90;0.60;;;27.10;99.90;;;;;;4922002;29;20024;-71
2022/03/25 04:02:44;;;;;;;3.05;1.02;;;27.00;99.90;;;;;;4922005;29;20052;-72
2022/03/25 04:05:12;;;;;;;3.50;0.70;;;26.80;99.90;;;;;;4924660;29;20146;-73
2022/03/25 04:07:44;;;;;;;2.92;0.70;;;26.60;99.90;;;;;;4920298;29;20042;-71
2022/03/25 04:10:12;;;;;;;4.30;1.83;;;26.30;99.90;;;;;;4921497;29;20083;-70
2022/03/25 04:12:40;;;;;;;4.13;0.98;;;26.00;99.90;;;;;;4920516;29;20528;-71
2022/03/25 04:15:09;;;;;;;2.95;1.10;;;25.60;99.90;;;;;;4922413;29;20522;-71
2022/03/25 04:17:41;;;;;;;6.22;1.05;;;25.30;99.90;;;;;;4929084;29;20421;-70
2022/03/25 04:20:10;;;;;;;5.13;0.70;;;25.10;99.90;;;;;;4920821;29;20069;-72
2022/03/25 04:22:38;;;;;;;2.63;0.65;;;24.80;99.90;;;;;;4924704;29;20094;-72
2022/03/25 04:25:07;;;;;;;1.88;0.60;;;24.70;99.90;;;;;;4922134;29;20020;-71
2022/03/25 04:27:55;;;;;;;4.25;0.88;;;24.60;99.90;;;;;;4924425;29;20036;-70
2022/03/25 04:30:27;;;;;;;2.00;0.50;;;24.60;99.90;;;;;;4920595;29;20044;-70
2022/03/25 04:32:57;;;;;;;2.72;0.50;;;24.60;99.90;;;;;;4918799;29;20082;-72
2022/03/25 04:35:24;;;;;;;3.20;0.80;;;24.50;99.90;;;;;;4923008;29;20509;-71
2022/03/25 04:37:53;;;;;;;6.13;1.48;;;24.40;99.90;;;;;;4920849;29;20039;-72
2022/03/25 04:40:22;;;;;;;6.85;0.80;;;24.30;99.90;;;;;;4922834;29;20427;-71
2022/03/25 04:42:51;;;;;;;2.25;0.60;;;24.10;99.90;;;;;;4919307;29;20028;-72
2022/03/25 04:45:21;;;;;;;3.70;0.95;;;23.90;99.90;;;;;;4923020;29;20699;-70
2022/03/25 04:47:48;;;;;;;4.72;0.98;;;23.90;99.90;;;;;;4920503;29;20143;-72
2022/03/25 04:50:16;;;;;;;4.88;0.85;;;23.90;99.90;;;;;;4923594;29;20079;-71
2022/03/25 04:52:44;;;;;;;3.95;0.88;;;23.90;99.90;;;;;;4920586;29;20122;-70
2022/03/25 04:55:11;;;;;;;5.68;1.23;;;24.00;99.90;;;;;;4923140;29;20032;-69
2022/03/25 04:57:39;;;;;;;2.50;1.33;;;24.10;99.90;;;;;;4916625;29;20059;-70
2022/03/25 05:00:08;;;;;;;4.28;0.95;;;24.10;99.90;;;;;;4924088;29;20122;-70
2022/03/25 05:02:35;;;;;;;2.72;0.60;;;24.20;99.90;;;;;;4925322;29;20023;-69
2022/03/25 05:05:03;;;;;;;4.72;0.88;;;24.20;99.90;;;;;;4921914;29;20039;-70
2022/03/25 05:07:31;;;;;;;2.13;0.63;;;24.10;99.90;;;;;;4923381;29;20055;-69
2022/03/25 05:09:59;;;;;;;3.35;0.73;;;24.10;99.90;;;;;;4923911;29;20039;-68
2022/03/25 05:12:28;;;;;;;3.88;1.10;;;24.10;99.90;;;;;;4921545;29;20032;-72
2022/03/25 05:14:56;;;;;;;4.05;0.80;;;24.10;99.90;;;;;;4921913;29;20028;-70
2022/03/25 05:17:23;;;;;;;2.65;1.52;;;24.00;99.90;;;;;;4923511;29;20178;-70
2022/03/25 05:19:50;;;;;;;1.88;0.50;;;24.00;99.90;;;;;;4924591;29;20056;-71
2022/03/25 05:22:18;;;;;;;2.97;0.90;;;24.00;99.90;;;;;;4920503;29;20036;-69
2022/03/25 05:24:45;;;;;;;3.53;0.77;;;24.00;99.90;;;;;;4925835;29;20055;-69
2022/03/25 05:27:13;;;;;;;5.13;1.13;;;24.00;99.90;;;;;;4922626;29;20028;-70
2022/03/25 05:29:40;;;;;;;4.40;0.82;;;24.10;99.90;;;;;;4923152;29;20063;-71
2022/03/25 05:32:08;;;;;;;5.32;1.40;;;24.20;99.90;;;;;;4921328;29;20502;-69
2022/03/25 05:34:36;;;;;;;2.25;0.80;;;24.30;99.90;;;;;;4921674;29;20934;-69
2022/03/25 05:37:05;;;;;;;3.38;0.68;;;24.30;99.90;;;;;;4921252;29;20190;-71
2022/03/25 05:39:32;;;;;;;4.80;0.80;;;24.20;99.90;;;;;;4921173;29;20079;-71
2022/03/25 05:41:59;;;;;;;4.20;1.23;;;24.20;99.90;;;;;;4923198;29;20090;-71
2022/03/25 05:44:26;;;;;;;2.58;0.90;;;24.10;99.90;;;;;;4923012;29;20102;-71
2022/03/25 05:46:54;;;;;;;13.10;1.05;;;23.90;99.90;;;;;;4920074;29;20662;-69
2022/03/25 05:49:21;;;;;;;2.33;0.90;;;23.80;99.90;;;;;;4924327;29;20027;-72
2022/03/25 05:51:49;;;;;;;9.25;0.88;;;23.60;99.90;;;;;;4921992;29;20036;-71
2022/03/25 05:54:16;;;;;;;2.90;0.80;;;23.40;99.90;;;;;;4922205;29;20470;-72
2022/03/25 05:56:44;;;;;;;2.45;0.70;;;23.30;99.90;;;;;;4921987;29;20048;-71
2022/03/25 05:59:12;;;;;;;2.58;1.27;;;23.20;99.90;;;;;;4915275;29;20110;-72
2022/03/25 06:01:40;;;;;;;1.50;0.63;;;23.20;99.90;;;;;;4916993;29;20518;-72
2022/03/25 06:04:09;;;;;;;2.13;0.80;;;23.10;99.90;;;;;;4924059;29;20051;-70
2022/03/25 06:06:38;;;;;;;1.38;0.43;;;23.20;99.90;;;;;;4922151;29;20039;-71
2022/03/25 06:09:05;;;;;;;2.10;0.70;;;23.20;99.90;;;;;;4921144;29;20139;-70
2022/03/25 06:11:33;;;;;;;3.65;1.23;;;23.30;99.90;;;;;;4919868;29;20047;-71
2022/03/25 06:14:01;;;;;;;3.63;0.68;;;23.30;99.90;;;;;;4920663;29;20036;-70
2022/03/25 06:16:28;;;;;;;2.08;0.98;;;23.30;99.90;;;;;;4922623;29;20454;-71
2022/03/25 06:18:55;;;;;;;3.08;1.20;;;23.20;99.90;;;;;;4918833;29;20078;-71
2022/03/25 06:21:23;;;;;;;4.78;1.50;;;23.20;99.90;;;;;;4922259;29;20486;-71
2022/03/25 06:23:50;;;;;;;1.50;0.65;;;23.30;99.90;;;;;;4922499;29;20016;-70
2022/03/25 06:26:18;;;;;;;2.05;0.70;;;23.30;99.90;;;;;;4928291;29;20712;-72
2022/03/25 06:28:46;;;;;;;1.10;0.60;;;23.20;99.90;;;;;;4924514;29;20043;-72
2022/03/25 06:31:13;;;;;;;2.25;0.70;;;23.00;99.90;;;;;;4928160;29;20052;-73
2022/03/25 06:33:41;;;;;;;1.58;0.68;;;22.60;99.90;;;;;;4928770;29;20023;-72
2022/03/25 06:36:13;;;;;;;5.00;0.50;;;22.40;99.90;;;;;;4925087;29;20038;-74
2022/03/25 06:38:43;;;;;;;3.40;0.68;;;22.30;99.90;;;;;;4933534;29;20042;-71
2022/03/25 06:41:11;;;;;;;3.45;0.88;;;22.20;99.90;;;;;;4925648;29;20457;-73
2022/03/25 06:43:39;;;;;;;4.07;0.60;;;22.00;99.90;;;;;;4925492;29;20043;-73
2022/03/25 06:46:06;;;;;;;1.33;0.75;;;21.90;99.90;;;;;;4927897;29;20059;-71
2022/03/25 06:48:35;;;;;;;5.15;0.60;;;21.90;99.90;;;;;;4925312;29;20059;-72
2022/03/25 06:51:04;;;;;;;2.03;0.75;;;22.00;99.90;;;;;;4927591;29;20040;-70
2022/03/25 06:53:32;;;;;;;2.92;0.80;;;22.00;99.90;;;;;;4929715;29;20054;-71
2022/03/25 06:56:00;;;;;;;3.03;1.42;;;22.10;99.90;;;;;;4930246;29;20037;-73
2022/03/25 06:58:28;;;;;;;1.38;0.82;;;22.10;99.90;;;;;;4929448;29;20489;-71
2022/03/25 07:00:55;;;;;;;2.58;1.55;;;21.90;99.90;;;;;;4926124;29;20031;-72
2022/03/25 07:03:23;;;;;;;3.70;1.17;;;21.90;99.90;;;;;;4925181;29;20031;-72
2022/03/25 07:05:52;;;;;;;1.48;0.60;;;21.80;99.90;;;;;;4928784;29;20070;-72
2022/03/25 07:08:23;;;;;;;1.40;1.00;;;21.80;99.90;;;;;;4926344;29;20035;-72
2022/03/25 07:10:51;;;;;;;2.17;0.60;;;21.80;99.90;;;;;;4926361;29;20062;-71
2022/03/25 07:13:18;;;;;;;2.72;0.63;;;21.70;99.90;;;;;;4925464;29;20066;-70
2022/03/25 07:15:45;;;;;;;5.40;1.25;;;21.60;99.90;;;;;;4926121;29;20036;-71
2022/03/25 07:18:13;;;;;;;4.63;1.40;;;21.60;99.90;;;;;;4923284;29;20106;-72
2022/03/25 07:20:43;;;;;;;3.25;0.90;;;21.70;99.90;;;;;;4925387;29;20059;-72
2022/03/25 07:23:11;;;;;;;4.88;2.20;;;21.70;99.90;;;;;;4925704;29;20043;-71
2022/03/25 07:25:38;;;;;;;3.10;1.00;;;21.80;99.90;;;;;;4923936;29;20020;-71
2022/03/25 07:28:05;;;;;;;12.30;2.45;;;21.80;99.90;;;;;;4923307;29;20410;-71
2022/03/25 07:30:33;;;;;;;2.45;0.80;;;21.90;99.90;;;;;;4925250;29;20198;-72
2022/03/25 07:33:00;;;;;;;3.20;0.95;;;21.80;99.90;;;;;;4926989;29;20035;-73
2022/03/25 07:35:28;;;;;;;4.75;0.90;;;21.80;99.90;;;;;;4926403;29;20043;-73
2022/03/25 07:37:55;;;;;;;3.05;1.25;;;21.70;99.90;;;;;;4929855;29;20043;-73
2022/03/25 07:40:24;;;;;;;4.10;1.20;;;21.60;99.90;;;;;;4935726;29;20103;-75
2022/03/25 07:42:51;;;;;;;3.53;1.25;;;21.50;99.90;;;;;;4933200;29;20020;-73
2022/03/25 07:45:19;;;;;;;1.85;1.20;;;21.50;99.90;;;;;;4922422;29;20394;-74
2022/03/25 07:47:51;;;;;;;4.88;1.65;;;21.40;99.90;;;;;;4933478;29;20683;-74
2022/03/25 07:50:21;;;;;;;2.72;1.35;;;21.40;99.90;;;;;;4936288;29;20036;-73
2022/03/25 07:52:49;;;;;;;2.97;1.35;;;21.40;99.90;;;;;;4934067;29;20494;-73
2022/03/25 07:55:18;;;;;;;2.78;1.10;;;21.40;99.90;;;;;;4929174;29;20036;-73
2022/03/25 07:57:47;;;;;;;7.63;1.63;;;21.40;99.90;;;;;;4922070;29;20115;-74
2022/03/25 08:00:16;;;;;;;11.07;1.60;;;21.30;99.90;;;;;;4919268;29;20039;-72
2022/03/25 08:02:53;;;;;;;2.45;1.30;;;21.10;99.90;;;;;;4918236;29;20115;-73
2022/03/25 08:05:23;;;;;;;4.15;1.90;;;21.10;99.90;;;;;;4930523;29;20091;-73
2022/03/25 08:07:54;;;;;;;6.30;1.70;;;21.00;99.90;;;;;;4923601;29;20035;-73
2022/03/25 08:10:29;;;;;;;5.60;1.90;;;21.00;99.90;;;;;;4929200;29;20040;-74
2022/03/25 08:12:58;;;;;;;2.85;1.65;;;20.90;99.90;;;;;;4929635;29;20032;-72
2022/03/25 08:18:47;;;;;;;6.40;1.55;;;20.80;99.90;;;;;;4927538;29;20145;-72
2022/03/25 08:21:15;;;;;;;4.72;1.10;;;20.80;99.90;;;;;;4919771;29;20856;-71
2022/03/25 08:29:13;;;;;;;6.43;1.52;;;20.70;99.90;;;;;;4922865;29;20051;-73
2022/03/25 08:31:40;;;;;;;7.63;1.52;;;20.60;99.90;;;;;;4929966;29;20557;-69
2022/03/25 08:34:13;;;;;;;7.82;1.25;;;20.60;99.90;;;;;;4924946;29;20031;-71
2022/03/25 08:36:47;;;;;;;9.30;1.90;;;20.60;99.90;;;;;;4928999;29;20091;-72
2022/03/25 08:39:17;;;;;;;4.40;1.67;;;20.60;99.90;;;;;;4926214;29;20028;-73
2022/03/25 08:41:44;;;;;;;6.22;1.60;;;20.50;99.90;;;;;;4928934;29;20114;-73
2022/03/25 08:44:12;;;;;;;5.68;1.40;;;20.40;99.90;;;;;;4928711;29;20065;-73
2022/03/25 08:46:40;;;;;;;9.18;1.42;;;20.40;99.90;;;;;;4930397;29;20115;-70
2022/03/25 08:49:10;;;;;;;2.72;1.20;;;20.40;99.90;;;;;;4927709;29;20039;-75
2022/03/25 08:51:40;;;;;;;2.38;1.08;;;20.40;99.90;;;;;;4923277;29;20051;-73
2022/03/25 08:54:08;;;;;;;3.25;1.00;;;20.40;99.90;;;;;;4924931;29;20028;-73
2022/03/25 08:56:36;;;;;;;2.60;1.52;;;20.40;99.90;;;;;;4928825;29;20027;-75
2022/03/25 08:59:04;;;;;;;4.00;1.00;;;20.40;99.90;;;;;;4929272;29;20020;-73
2022/03/25 09:01:34;;;;;;;5.70;1.23;;;20.40;99.90;;;;;;4926382;29;20394;-73
2022/03/25 09:04:01;;;;;;;4.75;1.10;;;20.40;99.90;;;;;;4931844;29;20064;-73
2022/03/25 09:06:29;;;;;;;5.10;1.50;;;20.40;99.90;;;;;;4926808;29;20036;-73
2022/03/25 09:08:56;;;;;;;7.82;1.88;;;20.40;99.90;;;;;;4922573;29;20024;-73
2022/03/25 09:11:24;;;;;;;7.78;2.55;;;20.50;99.90;;;;;;4925358;29;20046;-72
2022/03/25 09:13:54;;;;;;;8.13;1.45;;;20.60;99.90;;;;;;4922676;29;20115;-72
2022/03/25 09:16:21;;;;;;;4.47;1.27;;;20.60;99.90;;;;;;4920864;29;20142;-72
2022/03/25 09:18:49;;;;;;;4.10;1.38;;;20.60;99.90;;;;;;4922132;29;20546;-71
2022/03/25 09:21:16;;;;;;;6.22;1.63;;;20.60;99.90;;;;;;4923470;29;20051;-73
2022/03/25 09:23:43;;;;;;;4.15;1.10;;;20.60;99.90;;;;;;4921371;29;20042;-71
2022/03/25 09:26:11;;;;;;;4.40;1.17;;;20.60;99.90;;;;;;4923363;29;20031;-71
2022/03/25 09:28:39;;;;;;;8.05;2.08;;;20.70;99.90;;;;;;4921441;29;20051;-71
2022/03/25 09:31:06;;;;;;;4.82;1.30;;;20.70;99.90;;;;;;4924288;29;20100;-72
2022/03/25 09:33:33;;;;;;;5.78;1.25;;;20.70;99.90;;;;;;4923644;29;20039;-70
2022/03/25 09:36:01;;;;;;;4.82;1.65;;;20.70;99.90;;;;;;4923289;29;20031;-71
2022/03/25 09:38:28;;;;;;;5.05;1.70;;;20.60;99.90;;;;;;4922605;29;20360;-71
2022/03/25 09:40:58;;;;;;;5.15;1.52;;;20.70;99.90;;;;;;4923705;29;20040;-71
2022/03/25 09:43:26;;;;;;;3.28;1.50;;;20.70;99.90;;;;;;4922303;29;20051;-72
2022/03/25 09:45:53;;;;;;;10.60;2.67;;;20.60;99.90;;;;;;4923918;29;20124;-71
2022/03/25 09:48:21;;;;;;;7.55;1.92;;;20.60;99.90;;;;;;4918126;29;20023;-72
2022/03/25 09:50:48;;;;;;;4.38;1.13;;;20.60;99.90;;;;;;4921856;29;20371;-72
2022/03/25 09:53:16;;;;;;;6.57;1.63;;;20.60;99.90;;;;;;4920741;29;20027;-72
2022/03/25 09:55:48;;;;;;;2.88;1.50;;;20.60;99.90;;;;;;4921989;29;20043;-72
2022/03/25 09:58:18;;;;;;;4.60;1.98;;;20.60;99.90;;;;;;4921986;29;20059;-71
2022/03/25 10:00:53;;;;;;;9.13;1.85;;;20.60;99.90;;;;;;4920486;29;20027;-71
2022/03/25 10:03:32;;;;;;;3.15;1.35;;;20.60;99.90;;;;;;4920933;29;20427;-71
2022/03/25 10:06:01;;;;;;;2.17;1.60;;;20.50;99.90;;;;;;4922321;29;20064;-72
2022/03/25 10:08:32;;;;;;;4.22;1.10;;;20.50;99.90;;;;;;4921557;29;20087;-72
2022/03/25 10:11:23;;;;;;;3.13;1.25;;;20.50;99.90;;;;;;4921995;29;20122;-70
2022/03/25 10:14:23;;;;;;;2.85;1.08;;;20.50;99.90;;;;;;4920347;29;20043;-71
2022/03/25 10:16:52;;;;;;;5.50;1.52;;;20.50;99.90;;;;;;4921317;29;20506;-71
2022/03/25 10:19:21;;;;;;;8.82;1.92;;;20.40;99.90;;;;;;4923063;29;20059;-71
2022/03/25 10:22:00;;;;;;;6.80;1.83;;;20.50;99.90;;;;;;4922985;29;20039;-71
2022/03/25 10:24:44;;;;;;;3.75;1.27;;;20.50;99.90;;;;;;4926048;29;20028;-72
2022/03/25 10:27:12;;;;;;;7.10;1.20;;;20.50;99.90;;;;;;4923865;29;20119;-71
2022/03/25 10:29:43;;;;;;;4.03;1.40;;;20.40;99.90;;;;;;4920830;29;20542;-71
2022/03/25 10:32:15;;;;;;;2.63;0.80;;;20.40;99.90;;;;;;4922856;29;20051;-72
2022/03/25 10:34:44;;;;;;;2.53;1.48;;;20.40;99.90;;;;;;4920156;29;20138;-73
2022/03/25 10:37:13;;;;;;;2.90;1.27;;;20.40;99.90;;;;;;4922010;29;20123;-74
2022/03/25 10:39:51;;;;;;;4.60;1.70;;;20.40;99.90;;;;;;4929988;29;20031;-73
2022/03/25 10:42:36;;;;;;;2.97;1.55;;;20.30;99.90;;;;;;4922092;29;20427;-72
2022/03/25 10:45:27;;;;;;;2.47;1.20;;;20.20;99.90;;;;;;4922296;29;20062;-73
2022/03/25 10:48:18;;;;;;;5.20;1.77;;;20.10;99.90;;;;;;4927683;29;20073;-74
2022/03/25 10:51:07;;;;;;;5.70;1.33;;;20.10;99.90;;;;;;4922187;29;20066;-74
2022/03/25 10:53:36;;;;;;;1.92;0.82;;;20.00;99.90;;;;;;4922275;29;20486;-74
2022/03/25 10:56:07;;;;;;;5.80;1.15;;;19.90;99.90;;;;;;4922468;29;20115;-75
2022/03/25 10:58:35;;;;;;;5.45;1.35;;;19.90;99.90;;;;;;4921757;29;20036;-74
2022/03/25 11:01:07;;;;;;;3.95;1.77;;;19.80;99.90;;;;;;4922523;29;20040;-74
2022/03/25 11:03:35;;;;;;;5.35;0.90;;;19.80;99.90;;;;;;4921727;29;20063;-73
2022/03/25 11:06:03;;;;;;;3.90;1.30;;;19.80;99.90;;;;;;4922389;29;20035;-73
2022/03/25 11:08:31;;;;;;;2.08;1.08;;;19.70;99.90;;;;;;4922226;29;20430;-73
2022/03/25 11:10:59;;;;;;;2.53;1.00;;;19.70;99.90;;;;;;4922464;29;20048;-73
2022/03/25 11:13:27;;;;;;;2.63;1.75;;;19.70;99.90;;;;;;4924067;29;20039;-72
2022/03/25 11:15:59;;;;;;;2.28;1.02;;;19.60;99.90;;;;;;4925449;29;20028;-73
2022/03/25 11:18:28;;;;;;;2.88;1.30;;;19.60;99.90;;;;;;4923781;29;20373;-74
2022/03/25 11:21:00;;;;;;;1.85;1.67;;;19.50;99.90;;;;;;4926287;29;20407;-73
2022/03/25 11:23:56;;;;;;;4.30;1.05;;;19.50;99.90;;;;;;4924538;29;20032;-75
2022/03/25 11:26:26;;;;;;;3.87;1.70;;;19.40;99.90;;;;;;4930584;29;20052;-73
2022/03/25 11:28:58;;;;;;;2.25;1.02;;;19.40;99.90;;;;;;4923790;29;20047;-73
2022/03/25 11:31:25;;;;;;;1.83;0.98;;;19.30;99.90;;;;;;4924112;29;20080;-73
2022/03/25 11:34:15;;;;;;;3.25;1.08;;;19.30;99.90;;;;;;4926461;29;20553;-76
2022/03/25 11:36:43;;;;;;;3.25;1.35;;;19.20;99.90;;;;;;4922727;29;20050;-76
2022/03/25 11:39:21;;;;;;;2.42;1.45;;;19.20;99.90;;;;;;4931423;29;20028;-75
2022/03/25 11:41:49;;;;;;;3.92;1.58;;;19.10;99.90;;;;;;4930503;29;20032;-74
2022/03/25 11:44:17;;;;;;;2.60;1.50;;;19.10;99.90;;;;;;4924284;29;20032;-75
2022/03/25 11:47:00;;;;;;;2.92;1.63;;;19.10;99.90;;;;;;4923256;29;20067;-75
2022/03/25 11:49:38;;;;;;;3.28;1.25;;;19.00;99.90;;;;;;4924614;29;20051;-74
2022/03/25 11:52:18;;;;;;;12.65;2.08;;;19.00;99.90;;;;;;4927915;29;20438;-73
2022/03/25 11:54:45;;;;;;;2.10;1.25;;;19.00;99.90;;;;;;4930343;29;20134;-74
2022/03/25 11:57:32;;;;;;;2.03;1.10;;;19.00;99.90;;;;;;4932571;29;20032;-73
2022/03/25 12:00:11;;;;;;;9.13;1.40;;;19.00;99.90;;;;;;4930128;29;20023;-72
2022/03/25 12:02:42;;;;;;;4.13;1.48;;;18.90;99.90;;;;;;4922934;29;20479;-74
2022/03/25 12:05:29;;;;;;;2.83;1.33;;;18.90;99.90;;;;;;4926237;29;20039;-73
2022/03/25 12:08:32;;;;;;;2.33;0.90;;;18.80;99.90;;;;;;4918100;29;20036;-73
2022/03/25 12:11:00;;;;;;;2.10;1.13;;;18.80;99.90;;;;;;4905124;29;20074;-73
2022/03/25 12:13:54;;;;;;;3.65;1.83;;;18.70;99.90;;;;;;4927821;29;20038;-73
2022/03/25 12:16:48;;;;;;;1.95;1.05;;;18.70;99.90;;;;;;4921081;29;20052;-72
2022/03/25 12:19:31;;;;;;;3.25;2.42;;;18.70;99.90;;;;;;4929103;29;20252;-72
2022/03/25 12:22:00;;;;;;;4.32;1.65;;;18.70;99.90;;;;;;4916923;29;20035;-72
2022/03/25 12:24:32;;;;;;;4.47;1.35;;;18.70;99.90;;;;;;4919860;29;20082;-73
2022/03/25 12:27:06;;;;;;;3.35;1.50;;;18.70;99.90;;;;;;4926383;29;20102;-73
2022/03/25 12:29:33;;;;;;;2.95;1.30;;;18.60;99.90;;;;;;4933650;29;20115;-74
2022/03/25 12:32:06;;;;;;;6.50;2.25;;;18.60;99.90;;;;;;4931855;29;20453;-73
2022/03/25 12:35:11;;;;;;;4.50;1.15;;;18.60;99.90;;;;;;4923595;29;20067;-74
2022/03/25 12:37:56;;;;;;;3.22;1.70;;;18.60;99.90;;;;;;4921988;29;20070;-73
2022/03/25 12:40:34;;;;;;;3.38;1.23;;;18.60;99.90;;;;;;4929246;29;20078;-73
2022/03/25 12:43:05;;;;;;;5.07;1.60;;;18.60;99.90;;;;;;4927481;29;20826;-74
2022/03/25 12:45:34;;;;;;;6.15;1.85;;;18.50;99.90;;;;;;4931579;29;20032;-73
2022/03/25 12:48:13;;;;;;;6.07;1.50;;;18.50;99.90;;;;;;4935483;29;20036;-72
2022/03/25 12:50:49;;;;;;;1.83;1.25;;;18.50;99.90;;;;;;4942304;29;20060;-73
2022/03/25 12:53:21;;;;;;;1.60;1.25;;;18.50;99.90;;;;;;4946791;29;20008;-72
2022/03/25 12:55:48;;;;;;;3.20;1.13;;;18.50;99.90;;;;;;4937405;29;20478;-73
2022/03/25 12:58:16;;;;;;;2.78;1.45;;;18.50;99.90;;;;;;4925160;29;20490;-75
2022/03/25 13:00:46;;;;;;;2.80;0.95;;;18.50;99.90;;;;;;4924222;29;20042;-73
2022/03/25 13:03:16;;;;;;;3.13;1.23;;;18.50;99.90;;;;;;4925835;29;20074;-73
2022/03/25 13:05:45;;;;;;;2.50;1.15;;;18.60;99.90;;;;;;4931931;29;20461;-75
2022/03/25 13:08:13;;;;;;;2.17;1.30;;;18.60;99.90;;;;;;4928871;29;20457;-74
2022/03/25 13:10:43;;;;;;;5.85;1.30;;;18.60;99.90;;;;;;4929630;29;20028;-75